createdAt,value
2022-08-12T00:02:03.762Z,102324.91
2022-08-12T00:04:51.938Z,102323.25
2022-08-12T00:07:37.279Z,102321.38
2022-08-12T00:10:23.090Z,102323.06
2022-08-12T00:13:10.072Z,102329.66
2022-08-12T00:15:56.424Z,102321.56
2022-08-12T00:18:41.439Z,102321.13
2022-08-12T00:21:26.769Z,102321.53
2022-08-12T00:24:12.994Z,102322.13
2022-08-12T00:26:59.547Z,102320.88
2022-08-12T00:29:48.214Z,102312.56
2022-08-12T00:32:54.737Z,102314.00
2022-08-12T00:35:39.353Z,102312.94
2022-08-12T00:38:25.614Z,102311.03
2022-08-12T00:41:10.930Z,102308.94
2022-08-12T00:43:38.641Z,102309.16
2022-08-12T00:46:25.072Z,102311.41
2022-08-12T00:48:53.286Z,102312.19
2022-08-12T00:51:21.215Z,102309.28
2022-08-12T00:53:49.818Z,102308.63
2022-08-12T00:56:19.088Z,102311.53
2022-08-12T00:58:50.731Z,102315.44
2022-08-12T01:01:21.545Z,102323.69
2022-08-12T01:04:08.217Z,102323.25
2022-08-12T01:06:55.697Z,102320.72
2022-08-12T01:09:41.234Z,102316.94
2022-08-12T01:12:11.173Z,102319.97
2022-08-12T01:14:41.898Z,102314.75
2022-08-12T01:17:11.008Z,102314.06
2022-08-12T01:19:39.218Z,102314.38
2022-08-12T01:22:30.910Z,102305.81
2022-08-12T01:25:07.270Z,102317.34
2022-08-12T01:27:36.477Z,102312.94
2022-08-12T01:30:08.459Z,102323.25
2022-08-12T01:32:38.108Z,102316.19
2022-08-12T01:35:08.803Z,102312.66
2022-08-12T01:37:43.413Z,102317.84
2022-08-12T01:40:35.056Z,102314.19
2022-08-12T01:43:07.604Z,102310.56
2022-08-12T01:45:43.398Z,102317.06
2022-08-12T01:48:18.540Z,102317.75
2022-08-12T01:51:00.311Z,102308.22
2022-08-12T01:53:50.163Z,102314.44
2022-08-12T01:56:25.520Z,102317.31
2022-08-12T01:59:15.644Z,102312.09
2022-08-12T02:01:45.600Z,102311.00
2022-08-12T02:04:40.301Z,102309.50
2022-08-12T02:07:35.782Z,102306.78
2022-08-12T02:10:49.551Z,102309.19
2022-08-12T02:13:42.036Z,102307.72
2022-08-12T02:16:22.357Z,102308.50
2022-08-12T02:18:58.537Z,102306.00
2022-08-12T02:21:38.456Z,102304.97
2022-08-12T02:24:10.876Z,102302.03
2022-08-12T02:26:41.654Z,102293.50
2022-08-12T02:29:10.692Z,102293.06
2022-08-12T02:31:39.489Z,102295.13
2022-08-12T02:34:10.130Z,102294.09
2022-08-12T02:36:40.558Z,102292.63
2022-08-12T02:39:11.168Z,102292.19
2022-08-12T02:41:43.470Z,102280.78
2022-08-12T02:44:16.254Z,102286.69
2022-08-12T02:46:50.254Z,102289.00
2022-08-12T02:49:24.020Z,102293.44
2022-08-12T02:51:51.928Z,102296.03
2022-08-12T02:54:21.035Z,102293.19
2022-08-12T02:56:50.808Z,102294.50
2022-08-12T02:59:22.904Z,102292.44
2022-08-12T03:01:53.357Z,102289.97
2022-08-12T03:04:26.585Z,102292.09
2022-08-12T03:07:02.845Z,102293.56
2022-08-12T03:09:56.116Z,102286.13
2022-08-12T03:12:24.146Z,102292.97
2022-08-12T03:14:55.449Z,102284.72
2022-08-12T03:17:30.266Z,102276.25
2022-08-12T03:20:09.925Z,102276.50
2022-08-12T03:22:40.530Z,102274.66
2022-08-12T03:25:17.086Z,102276.13
2022-08-12T03:27:49.633Z,102275.72
2022-08-12T03:30:20.680Z,102270.78
2022-08-12T03:32:50.786Z,102277.47
2022-08-12T03:35:41.500Z,102278.91
2022-08-12T03:38:12.117Z,102275.44
2022-08-12T03:41:09.748Z,102273.81
2022-08-12T03:44:06.502Z,102268.47
2022-08-12T03:46:57.521Z,102278.03
2022-08-12T03:49:43.441Z,102273.06
2022-08-12T03:52:28.709Z,102268.31
2022-08-12T03:55:13.934Z,102267.28
2022-08-12T03:57:58.937Z,102268.13
2022-08-12T04:00:26.729Z,102270.00
2022-08-12T04:02:59.110Z,102266.47
2022-08-12T04:05:55.973Z,102261.06
2022-08-12T04:08:15.080Z,102266.25
2022-08-12T04:10:56.670Z,102261.69
2022-08-12T04:13:25.515Z,102258.81
2022-08-12T04:15:54.045Z,102259.44
2022-08-12T04:18:23.488Z,102259.03
2022-08-12T04:20:52.277Z,102271.13
2022-08-12T04:23:21.812Z,102265.34
2022-08-12T04:25:49.369Z,102271.97
2022-08-12T04:28:17.151Z,102264.16
2022-08-12T04:30:44.717Z,102270.38
2022-08-12T04:33:13.647Z,102265.44
2022-08-12T04:35:42.649Z,102263.38
2022-08-12T04:38:10.940Z,102258.03
2022-08-12T04:40:38.846Z,102258.06
2022-08-12T04:43:06.985Z,102259.97
2022-08-12T04:45:54.501Z,102263.53
2022-08-12T04:48:22.322Z,102264.78
2022-08-12T04:50:51.735Z,102268.72
2022-08-12T04:53:19.985Z,102260.88
2022-08-12T04:55:48.220Z,102263.38
2022-08-12T04:58:15.781Z,102270.25
2022-08-12T05:00:57.476Z,102270.66
2022-08-12T05:03:26.344Z,102269.25
2022-08-12T05:05:56.549Z,102268.34
2022-08-12T05:08:25.472Z,102272.53
2022-08-12T05:10:54.106Z,102268.56
2022-08-12T05:13:24.030Z,102259.97
2022-08-12T05:16:04.827Z,102261.94
2022-08-12T05:18:33.838Z,102263.63
2022-08-12T05:21:04.198Z,102264.56
2022-08-12T05:23:32.085Z,102270.47
2022-08-12T05:26:00.951Z,102260.94
2022-08-12T05:28:30.301Z,102268.06
2022-08-12T05:31:01.651Z,102265.00
2022-08-12T05:33:33.096Z,102272.75
2022-08-12T05:36:00.670Z,102269.94
2022-08-12T05:38:52.538Z,102273.13
2022-08-12T05:41:20.341Z,102278.69
2022-08-12T05:43:51.128Z,102282.88
2022-08-12T05:46:19.849Z,102275.75
2022-08-12T05:48:47.881Z,102278.56
2022-08-12T05:51:15.446Z,102273.50
2022-08-12T05:53:44.658Z,102278.78
2022-08-12T05:56:23.778Z,102276.06
2022-08-12T05:58:52.661Z,102278.94
2022-08-12T06:02:09.599Z,102280.88
2022-08-12T06:04:09.669Z,102267.19
2022-08-12T06:06:41.664Z,102281.69
2022-08-12T06:09:11.294Z,102282.25
2022-08-12T06:11:41.356Z,102275.13
2022-08-12T06:14:29.017Z,102275.94
2022-08-12T06:16:57.867Z,102276.69
2022-08-12T06:20:26.536Z,102277.59
2022-08-12T06:22:15.228Z,102274.59
2022-08-12T06:24:44.128Z,102278.09
2022-08-12T06:27:18.533Z,102275.03
2022-08-12T06:30:08.553Z,102269.28
2022-08-12T06:32:34.478Z,102282.94
2022-08-12T06:35:26.065Z,102278.16
2022-08-12T06:37:56.418Z,102272.88
2022-08-12T06:40:43.379Z,102267.84
2022-08-12T06:43:10.944Z,102271.31
2022-08-12T06:45:45.394Z,102267.81
2022-08-12T06:48:14.239Z,102273.22
2022-08-12T06:50:42.420Z,102266.25
2022-08-12T06:53:11.029Z,102264.00
2022-08-12T06:55:57.603Z,102266.03
2022-08-12T06:58:26.329Z,102268.22
2022-08-12T07:00:55.802Z,102265.00
2022-08-12T07:03:28.635Z,102262.38
2022-08-12T07:05:58.582Z,102265.94
2022-08-12T07:08:29.192Z,102266.38
2022-08-12T07:11:00.922Z,102262.06
2022-08-12T07:13:30.934Z,102259.44
2022-08-12T07:15:58.613Z,102260.75
2022-08-12T07:18:32.480Z,102266.38
2022-08-12T07:21:03.806Z,102260.53
2022-08-12T07:23:33.436Z,102275.13
2022-08-12T07:26:03.834Z,102269.63
2022-08-12T07:28:34.813Z,102276.16
2022-08-12T07:31:04.790Z,102272.81
2022-08-12T07:33:32.935Z,102276.84
2022-08-12T07:36:03.170Z,102279.00
2022-08-12T07:38:33.473Z,102277.84
2022-08-12T07:41:06.981Z,102274.44
2022-08-12T07:43:36.708Z,102272.13
2022-08-12T07:46:10.245Z,102277.63
2022-08-12T07:48:41.236Z,102293.38
2022-08-12T07:51:09.434Z,102289.66
2022-08-12T07:54:00.165Z,102289.44
2022-08-12T07:56:27.476Z,102289.47
2022-08-12T07:58:58.893Z,102286.41
2022-08-12T08:01:26.549Z,102285.78
2022-08-12T08:04:17.978Z,102280.97
2022-08-12T08:06:46.700Z,102285.56
2022-08-12T08:09:16.298Z,102287.69
2022-08-12T08:12:03.129Z,102290.41
2022-08-12T08:14:32.382Z,102293.28
2022-08-12T08:17:03.381Z,102291.97
2022-08-12T08:19:33.560Z,102284.13
2022-08-12T08:22:32.068Z,102286.09
2022-08-12T08:25:34.415Z,102288.03
2022-08-12T08:28:02.723Z,102300.09
2022-08-12T08:30:31.950Z,102291.84
2022-08-12T08:33:00.042Z,102284.94
2022-08-12T08:35:38.745Z,102291.50
2022-08-12T08:38:28.078Z,102289.78
2022-08-12T08:42:15.895Z,102305.06
2022-08-12T08:44:07.635Z,102294.84
2022-08-12T08:46:37.728Z,102296.41
2022-08-12T08:49:05.925Z,102302.81
2022-08-12T08:51:33.866Z,102290.25
2022-08-12T08:54:01.577Z,102297.09
2022-08-12T08:56:30.090Z,102297.84
2022-08-12T08:58:57.785Z,102293.34
2022-08-12T09:01:38.015Z,102291.38
2022-08-12T09:05:09.005Z,102292.00
2022-08-12T09:06:56.699Z,102298.28
2022-08-12T09:09:24.788Z,102298.59
2022-08-12T09:12:27.537Z,102303.41
2022-08-12T09:14:55.800Z,102295.81
2022-08-12T09:17:26.675Z,102303.72
2022-08-12T09:20:10.829Z,102299.34
2022-08-12T09:22:48.971Z,102296.72
2022-08-12T09:25:25.985Z,102292.66
2022-08-12T09:28:03.682Z,102288.28
2022-08-12T09:30:42.472Z,102290.75
2022-08-12T09:33:18.790Z,102291.59
2022-08-12T09:36:03.131Z,102281.72
2022-08-12T09:38:33.638Z,102281.72
2022-08-12T09:42:34.189Z,102280.59
2022-08-12T09:44:38.161Z,102285.78
2022-08-12T09:46:57.303Z,102290.91
2022-08-12T09:49:26.210Z,102281.91
2022-08-12T09:51:55.299Z,102279.72
2022-08-12T09:54:33.626Z,102272.63
2022-08-12T09:58:44.598Z,102269.88
2022-08-12T10:00:12.531Z,102261.91
2022-08-12T10:03:01.660Z,102257.81
2022-08-12T10:06:27.158Z,102261.63
2022-08-12T10:08:22.031Z,102250.09
2022-08-12T10:11:05.266Z,102244.13
2022-08-12T10:13:43.967Z,102243.63
2022-08-12T10:16:18.550Z,102250.75
2022-08-12T10:18:53.457Z,102248.03
2022-08-12T10:21:24.255Z,102236.00
2022-08-12T10:24:05.129Z,102237.41
2022-08-12T10:26:51.885Z,102230.78
2022-08-12T10:30:37.151Z,102227.75
2022-08-12T10:32:43.041Z,102228.88
2022-08-12T10:35:15.368Z,102238.16
2022-08-12T10:38:33.550Z,102220.66
2022-08-12T10:40:34.269Z,102224.22
2022-08-12T10:43:23.283Z,102211.91
2022-08-12T10:45:58.517Z,102213.56
2022-08-12T10:48:33.730Z,102205.00
2022-08-12T10:51:51.550Z,102198.41
2022-08-12T10:54:00.742Z,102199.47
2022-08-12T10:56:34.790Z,102199.44
2022-08-12T10:59:03.844Z,102198.25
2022-08-12T11:04:17.384Z,102190.88
2022-08-12T11:04:34.269Z,102193.16
2022-08-12T11:08:34.640Z,102188.16
2022-08-12T11:10:01.661Z,102191.22
2022-08-12T11:12:55.504Z,102177.28
2022-08-12T11:15:33.148Z,102193.72
2022-08-12T11:18:11.951Z,102183.06
2022-08-12T11:20:47.418Z,102193.19
2022-08-12T11:23:35.966Z,102187.44
2022-08-12T11:26:06.175Z,102197.88
2022-08-12T11:28:36.756Z,102188.53
2022-08-12T11:31:07.356Z,102180.09
2022-08-12T11:34:05.858Z,102176.78
2022-08-12T11:36:28.043Z,102171.25
2022-08-12T11:38:56.726Z,102177.00
2022-08-12T11:41:31.686Z,102170.41
2022-08-12T11:44:32.002Z,102179.44
2022-08-12T11:46:50.863Z,102175.84
2022-08-12T11:49:30.459Z,102171.72
2022-08-12T11:52:01.140Z,102165.88
2022-08-12T11:54:29.786Z,102174.41
2022-08-12T11:57:00.092Z,102171.63
2022-08-12T12:02:20.247Z,102163.44
2022-08-12T12:04:52.561Z,102166.38
2022-08-12T12:07:22.349Z,102161.16
2022-08-12T12:09:53.399Z,102157.63
2022-08-12T12:12:25.048Z,102154.34
2022-08-12T12:14:54.223Z,102152.16
2022-08-12T12:17:22.717Z,102145.53
2022-08-12T12:19:50.330Z,102156.78
2022-08-12T12:22:23.139Z,102154.91
2022-08-12T12:24:54.574Z,102158.50
2022-08-12T12:27:42.273Z,102166.75
2022-08-12T12:30:19.273Z,102150.84
2022-08-12T12:32:54.547Z,102145.66
2022-08-12T12:36:16.596Z,102158.84
2022-08-12T12:38:12.603Z,102142.31
2022-08-12T12:40:43.985Z,102141.44
2022-08-12T12:43:13.838Z,102136.75
2022-08-12T12:45:44.577Z,102137.56
2022-08-12T12:48:15.499Z,102140.56
2022-08-12T12:50:45.507Z,102131.53
2022-08-12T12:54:05.252Z,102123.34
2022-08-12T12:56:15.930Z,102138.69
2022-08-12T12:58:45.100Z,102127.16
2022-08-12T13:01:26.792Z,102120.34
2022-08-12T13:04:01.962Z,102136.47
2022-08-12T13:06:31.842Z,102126.06
2022-08-12T13:09:02.758Z,102133.78
2022-08-12T13:11:41.358Z,102120.88
2022-08-12T13:14:28.398Z,102127.44
2022-08-12T13:16:58.361Z,102123.63
2022-08-12T13:19:38.682Z,102119.53
2022-08-12T13:22:21.100Z,102113.69
2022-08-12T13:24:54.630Z,102109.00
2022-08-12T13:27:28.223Z,102116.16
2022-08-12T13:30:00.920Z,102110.66
2022-08-12T13:32:31.834Z,102112.03
2022-08-12T13:35:04.641Z,102121.66
2022-08-12T13:37:55.333Z,102108.19
2022-08-12T13:40:24.798Z,102103.25
2022-08-12T13:42:57.774Z,102109.03
2022-08-12T13:45:29.176Z,102116.41
2022-08-12T13:48:00.043Z,102113.41
2022-08-12T13:50:32.399Z,102114.78
2022-08-12T13:53:01.249Z,102097.22
2022-08-12T13:55:59.400Z,102093.69
2022-08-12T13:58:30.514Z,102095.53
2022-08-12T14:01:04.562Z,102091.47
2022-08-12T14:03:51.409Z,102098.81
2022-08-12T14:06:20.649Z,102107.00
2022-08-12T14:08:50.605Z,102096.84
2022-08-12T14:11:19.242Z,102107.41
2022-08-12T14:14:05.978Z,102098.88
2022-08-12T14:16:48.674Z,102114.00
2022-08-12T14:19:23.338Z,102099.03
2022-08-12T14:21:59.728Z,102102.63
2022-08-12T14:24:40.662Z,102095.47
2022-08-12T14:27:10.919Z,102085.09
2022-08-12T14:30:05.767Z,102092.78
2022-08-12T14:32:34.626Z,102097.16
2022-08-12T14:35:03.854Z,102089.78
2022-08-12T14:37:56.576Z,102089.50
2022-08-12T14:40:25.933Z,102091.97
2022-08-12T14:42:55.770Z,102094.72
2022-08-12T14:45:45.114Z,102091.94
2022-08-12T14:48:15.597Z,102098.25
2022-08-12T14:51:02.667Z,102086.72
2022-08-12T14:57:05.624Z,102077.91
2022-08-12T14:59:25.480Z,102081.50
2022-08-12T15:01:54.678Z,102077.34
2022-08-12T15:04:28.460Z,102075.66
2022-08-12T15:06:56.081Z,102068.81
2022-08-12T15:09:29.090Z,102084.97
2022-08-12T15:12:03.514Z,102075.56
2022-08-12T15:14:31.824Z,102076.53
2022-08-12T15:17:00.471Z,102065.81
2022-08-12T15:20:11.340Z,102070.22
2022-08-12T15:22:39.647Z,102066.38
2022-08-12T15:25:07.488Z,102065.88
2022-08-12T15:28:03.936Z,102059.81
2022-08-12T15:30:31.873Z,102054.13
2022-08-12T15:33:00.083Z,102057.94
2022-08-12T15:35:50.358Z,102045.84
2022-08-12T15:38:22.017Z,102053.84
2022-08-12T15:40:53.319Z,102054.47
2022-08-12T15:43:35.364Z,102055.28
2022-08-12T15:46:15.846Z,102048.41
2022-08-12T15:48:47.053Z,102047.88
2022-08-12T15:51:57.575Z,102047.09
2022-08-12T15:54:30.729Z,102056.75
2022-08-12T15:57:03.348Z,102050.19
2022-08-12T15:59:32.696Z,102047.41
2022-08-12T16:02:18.603Z,102041.63
2022-08-12T16:04:50.353Z,102038.09
2022-08-12T16:07:30.125Z,102032.03
2022-08-12T16:10:06.605Z,102034.50
2022-08-12T16:12:41.859Z,102032.31
2022-08-12T16:15:11.089Z,102029.84
2022-08-12T16:18:19.487Z,102029.91
2022-08-12T16:20:33.846Z,102020.56
2022-08-12T16:23:36.128Z,102021.41
2022-08-12T16:26:06.198Z,102023.63
2022-08-12T16:28:41.633Z,102027.47
2022-08-12T16:31:18.668Z,102022.22
2022-08-12T16:33:59.697Z,102021.69
2022-08-12T16:36:29.119Z,102016.75
2022-08-12T16:39:01.219Z,102012.94
2022-08-12T16:41:38.086Z,102003.63
2022-08-12T16:44:08.262Z,102009.38
2022-08-12T16:46:36.282Z,102006.41
2022-08-12T16:49:08.866Z,102000.91
2022-08-12T16:51:46.949Z,102004.50
2022-08-12T16:54:18.427Z,101985.03
2022-08-12T16:56:50.875Z,101998.75
2022-08-12T16:59:26.223Z,101995.44
2022-08-12T17:01:59.015Z,101991.34
2022-08-12T17:04:29.018Z,101996.06
2022-08-12T17:06:56.581Z,101998.81
2022-08-12T17:09:34.154Z,101995.81
2022-08-12T17:12:08.708Z,101992.25
2022-08-12T17:14:37.748Z,101992.25
2022-08-12T17:17:18.464Z,101996.38
2022-08-12T17:20:30.678Z,101991.44
2022-08-12T17:22:52.684Z,101996.94
2022-08-12T17:25:23.138Z,101994.97
2022-08-12T17:27:57.219Z,101996.06
2022-08-12T17:30:27.493Z,101994.72
2022-08-12T17:32:56.486Z,101991.97
2022-08-12T17:35:37.445Z,101988.94
2022-08-12T17:38:13.607Z,101994.44
2022-08-12T17:40:46.434Z,101990.88
2022-08-12T17:43:54.763Z,101985.38
2022-08-12T17:46:12.606Z,101994.38
2022-08-12T17:48:55.152Z,101990.56
2022-08-12T17:51:24.306Z,101988.59
2022-08-12T17:54:11.112Z,101986.38
2022-08-12T17:56:43.499Z,101988.84
2022-08-12T17:59:12.255Z,101990.72
2022-08-12T18:01:45.419Z,101983.59
2022-08-12T18:04:22.129Z,101990.09
2022-08-12T18:06:51.881Z,101987.38
2022-08-12T18:09:19.641Z,101993.06
2022-08-12T18:12:08.334Z,101988.94
2022-08-12T18:14:36.923Z,101980.41
2022-08-12T18:17:08.771Z,101993.47
2022-08-12T18:20:05.023Z,101997.00
2022-08-12T18:22:31.420Z,101993.38
2022-08-12T18:26:13.163Z,101990.56
2022-08-12T18:28:15.776Z,102005.78
2022-08-12T18:30:53.313Z,102001.06
2022-08-12T18:33:25.367Z,102002.03
2022-08-12T18:35:56.782Z,102002.00
2022-08-12T18:38:26.820Z,101997.28
2022-08-12T18:41:20.919Z,102003.47
2022-08-12T18:43:59.834Z,102013.72
2022-08-12T18:46:34.887Z,102005.38
2022-08-12T18:49:18.853Z,102012.38
2022-08-12T18:51:54.788Z,102005.41
2022-08-12T18:54:25.598Z,102016.50
2022-08-12T18:56:54.063Z,102008.69
2022-08-12T19:00:01.582Z,102016.78
2022-08-12T19:02:19.289Z,102017.69
2022-08-12T19:04:52.890Z,102009.91
2022-08-12T19:07:23.188Z,102014.69
2022-08-12T19:09:58.710Z,102010.72
2022-08-12T19:12:56.894Z,102016.84
2022-08-12T19:15:27.329Z,102009.88
2022-08-12T19:18:01.028Z,102017.38
2022-08-12T19:20:31.654Z,102016.72
2022-08-12T19:23:07.285Z,102019.84
2022-08-12T19:26:01.710Z,102027.84
2022-08-12T19:28:35.238Z,102019.53
2022-08-12T19:31:44.835Z,102015.53
2022-08-12T19:34:56.333Z,102018.56
2022-08-12T19:37:19.991Z,102020.63
2022-08-12T19:40:09.445Z,102023.72
2022-08-12T19:42:42.809Z,102037.69
2022-08-12T19:45:15.788Z,102026.13
2022-08-12T19:47:46.504Z,102026.78
2022-08-12T19:50:14.794Z,102032.94
2022-08-12T19:52:48.053Z,102031.75
2022-08-12T19:55:21.815Z,102032.13
2022-08-12T19:58:01.481Z,102035.59
2022-08-12T20:00:30.610Z,102036.03
2022-08-12T20:03:00.527Z,102041.34
2022-08-12T20:06:05.930Z,102048.06
2022-08-12T20:08:31.266Z,102043.84
2022-08-12T20:12:14.577Z,102040.44
2022-08-12T20:14:00.795Z,102042.78
2022-08-12T20:16:52.352Z,102044.34
2022-08-12T20:19:53.047Z,102048.00
2022-08-12T20:22:24.384Z,102039.72
2022-08-12T20:24:58.028Z,102039.63
2022-08-12T20:28:04.448Z,102039.75
2022-08-12T20:30:18.111Z,102044.22
2022-08-12T20:32:56.040Z,102045.75
2022-08-12T20:36:05.824Z,102049.19
2022-08-12T20:38:26.494Z,102050.97
2022-08-12T20:40:55.201Z,102039.16
2022-08-12T20:43:24.316Z,102047.75
2022-08-12T20:45:57.589Z,102048.66
2022-08-12T20:48:28.532Z,102048.53
2022-08-12T20:51:04.299Z,102051.94
2022-08-12T20:53:57.776Z,102049.69
2022-08-12T20:56:30.370Z,102047.47
2022-08-12T20:59:00.805Z,102056.06
2022-08-12T21:01:36.817Z,102050.25
2022-08-12T21:04:34.477Z,102055.94
2022-08-12T21:07:09.709Z,102052.84
2022-08-12T21:09:41.899Z,102048.94
2022-08-12T21:12:27.346Z,102049.66
2022-08-12T21:15:16.627Z,102046.56
2022-08-12T21:18:08.775Z,102045.38
2022-08-12T21:20:35.700Z,102044.66
2022-08-12T21:23:06.349Z,102051.59
2022-08-12T21:25:44.481Z,102048.75
2022-08-12T21:28:13.033Z,102055.69
2022-08-12T21:30:54.702Z,102049.88
2022-08-12T21:33:31.306Z,102051.63
2022-08-12T21:36:00.904Z,102047.69
2022-08-12T21:38:40.222Z,102046.72
2022-08-12T21:41:15.686Z,102052.84
2022-08-12T21:43:45.156Z,102047.25
2022-08-12T21:46:35.327Z,102046.91
2022-08-12T21:49:05.386Z,102050.06
2022-08-12T21:51:49.216Z,102050.72
2022-08-12T21:54:22.019Z,102049.56
2022-08-12T21:56:50.413Z,102048.34
2022-08-12T21:59:18.829Z,102048.34
2022-08-12T22:01:48.496Z,102051.03
2022-08-12T22:04:35.543Z,102046.66
2022-08-12T22:07:06.076Z,102048.78
2022-08-12T22:09:43.126Z,102048.19
2022-08-12T22:12:28.912Z,102057.56
2022-08-12T22:14:56.532Z,102050.97
2022-08-12T22:17:33.878Z,102054.97
2022-08-12T22:20:21.725Z,102048.09
2022-08-12T22:22:56.334Z,102055.63
2022-08-12T22:25:27.571Z,102054.78
2022-08-12T22:28:12.772Z,102045.25
2022-08-12T22:30:58.047Z,102052.16
2022-08-12T22:33:25.622Z,102056.13
2022-08-12T22:35:59.348Z,102058.25
2022-08-12T22:38:29.693Z,102051.41
2022-08-12T22:41:01.513Z,102051.03
2022-08-12T22:44:01.182Z,102047.72
2022-08-12T22:46:53.632Z,102044.63
2022-08-12T22:49:22.761Z,102049.44
2022-08-12T22:52:06.905Z,102045.28
2022-08-12T22:54:37.632Z,102041.16
2022-08-12T22:57:15.802Z,102040.53
2022-08-12T22:59:55.844Z,102045.34
2022-08-12T23:02:28.855Z,102042.00
2022-08-12T23:04:56.872Z,102038.47
2022-08-12T23:07:24.681Z,102038.47
2022-08-12T23:09:54.769Z,102040.16
2022-08-12T23:12:46.485Z,102039.31
2022-08-12T23:15:14.793Z,102041.19
2022-08-12T23:17:42.697Z,102045.16
2022-08-12T23:20:12.845Z,102031.03
2022-08-12T23:22:40.433Z,102028.56
2022-08-12T23:25:20.962Z,102035.03
2022-08-12T23:28:29.742Z,102036.31
2022-08-12T23:31:04.624Z,102027.56
2022-08-12T23:34:01.392Z,102026.72
2022-08-12T23:36:31.731Z,102028.00
2022-08-12T23:40:15.583Z,102021.63
2022-08-12T23:42:16.995Z,102024.75
2022-08-12T23:44:52.442Z,102030.63
2022-08-12T23:47:21.275Z,102024.81
2022-08-12T23:49:57.764Z,102025.06
2022-08-12T23:52:28.552Z,102023.38
2022-08-12T23:55:25.098Z,102019.25
2022-08-12T23:58:17.318Z,102028.63
